Terminal Aerodrome Forecast
Issued by NWS

Home | Current Version | Previous Version | Text Only | Print | Product List | Glossary On
Versions: 1 2 3 4 5 6 7 8 9 10 11 12 13 14 15 16
487
FTUS46 KMFR 180549 AAA
TAFRBG
TAF AMD
KRBG 180549Z 1806/1906 00000KT P6SM SKC
     FM181500 00000KT 2SM FU SKC
     FM182000 02008KT 6SM FU SKC
     FM190500 36003KT P6SM SKC=

USA.gov is the U.S. government's official web portal to all federal, state and local government web resources and services.